sensor_id;sensor_type;location;lat;lon;timestamp;P1;durP1;ratioP1;P2;durP2;ratioP2
56102;SDS011;41970;48.774;9.280;2023-06-10T00:01:45;7.93;;;6.00;;
56102;SDS011;41970;48.774;9.280;2023-06-10T00:04:14;6.73;;;6.23;;
56102;SDS011;41970;48.774;9.280;2023-06-10T00:06:44;7.07;;;6.47;;
56102;SDS011;41970;48.774;9.280;2023-06-10T00:09:09;6.47;;;5.97;;
56102;SDS011;41970;48.774;9.280;2023-06-10T00:11:36;6.80;;;6.10;;
56102;SDS011;41970;48.774;9.280;2023-06-10T00:14:02;6.90;;;6.40;;
56102;SDS011;41970;48.774;9.280;2023-06-10T00:16:28;7.43;;;6.83;;
56102;SDS011;41970;48.774;9.280;2023-06-10T00:18:54;7.83;;;7.13;;
56102;SDS011;41970;48.774;9.280;2023-06-10T00:21:33;6.93;;;6.40;;
56102;SDS011;41970;48.774;9.280;2023-06-10T00:24:05;6.83;;;6.10;;
56102;SDS011;41970;48.774;9.280;2023-06-10T00:26:32;7.07;;;6.47;;
56102;SDS011;41970;48.774;9.280;2023-06-10T00:28:58;7.23;;;6.53;;
56102;SDS011;41970;48.774;9.280;2023-06-10T00:31:24;7.10;;;6.50;;
56102;SDS011;41970;48.774;9.280;2023-06-10T00:33:53;7.40;;;6.80;;
56102;SDS011;41970;48.774;9.280;2023-06-10T00:36:19;7.73;;;7.13;;
56102;SDS011;41970;48.774;9.280;2023-06-10T00:38:45;7.00;;;6.03;;
56102;SDS011;41970;48.774;9.280;2023-06-10T00:41:11;7.00;;;6.30;;
56102;SDS011;41970;48.774;9.280;2023-06-10T00:43:37;6.10;;;5.50;;
56102;SDS011;41970;48.774;9.280;2023-06-10T00:46:02;7.43;;;6.83;;
56102;SDS011;41970;48.774;9.280;2023-06-10T00:48:28;9.20;;;5.97;;
56102;SDS011;41970;48.774;9.280;2023-06-10T00:50:54;6.83;;;6.23;;
56102;SDS011;41970;48.774;9.280;2023-06-10T00:53:21;6.07;;;5.53;;
56102;SDS011;41970;48.774;9.280;2023-06-10T00:55:47;6.60;;;6.00;;
56102;SDS011;41970;48.774;9.280;2023-06-10T00:58:13;7.00;;;6.40;;
56102;SDS011;41970;48.774;9.280;2023-06-10T01:00:40;7.53;;;6.70;;
56102;SDS011;41970;48.774;9.280;2023-06-10T01:03:05;6.83;;;6.23;;
56102;SDS011;41970;48.774;9.280;2023-06-10T01:05:33;7.27;;;6.57;;
56102;SDS011;41970;48.774;9.280;2023-06-10T01:08:03;6.43;;;5.93;;
56102;SDS011;41970;48.774;9.280;2023-06-10T01:10:48;6.00;;;5.53;;
56102;SDS011;41970;48.774;9.280;2023-06-10T01:13:18;6.37;;;5.77;;
56102;SDS011;41970;48.774;9.280;2023-06-10T01:15:48;8.13;;;6.40;;
56102;SDS011;41970;48.774;9.280;2023-06-10T01:18:13;6.33;;;5.73;;
56102;SDS011;41970;48.774;9.280;2023-06-10T01:20:42;6.63;;;5.77;;
56102;SDS011;41970;48.774;9.280;2023-06-10T01:23:11;7.13;;;6.53;;
56102;SDS011;41970;48.774;9.280;2023-06-10T01:25:38;7.20;;;6.50;;
56102;SDS011;41970;48.774;9.280;2023-06-10T01:33:29;5.80;;;5.40;;
56102;SDS011;41970;48.774;9.280;2023-06-10T01:35:59;6.30;;;5.80;;
56102;SDS011;41970;48.774;9.280;2023-06-10T01:38:26;6.20;;;5.70;;
56102;SDS011;41970;48.774;9.280;2023-06-10T01:40:53;6.23;;;5.73;;
56102;SDS011;41970;48.774;9.280;2023-06-10T01:43:21;6.57;;;5.97;;
56102;SDS011;41970;48.774;9.280;2023-06-10T01:45:46;6.40;;;5.80;;
56102;SDS011;41970;48.774;9.280;2023-06-10T01:48:12;7.13;;;6.53;;
56102;SDS011;41970;48.774;9.280;2023-06-10T01:50:38;7.03;;;6.43;;
56102;SDS011;41970;48.774;9.280;2023-06-10T01:53:04;5.90;;;5.40;;
56102;SDS011;41970;48.774;9.280;2023-06-10T01:55:30;6.53;;;5.97;;
56102;SDS011;41970;48.774;9.280;2023-06-10T01:57:56;7.60;;;5.80;;
56102;SDS011;41970;48.774;9.280;2023-06-10T02:00:22;6.77;;;6.27;;
56102;SDS011;41970;48.774;9.280;2023-06-10T02:02:48;7.00;;;6.40;;
56102;SDS011;41970;48.774;9.280;2023-06-10T02:05:13;5.63;;;5.23;;
56102;SDS011;41970;48.774;9.280;2023-06-10T02:07:39;6.67;;;6.07;;
56102;SDS011;41970;48.774;9.280;2023-06-10T02:10:06;5.83;;;5.30;;
56102;SDS011;41970;48.774;9.280;2023-06-10T02:12:32;6.53;;;5.90;;
56102;SDS011;41970;48.774;9.280;2023-06-10T02:14:57;6.63;;;6.13;;
56102;SDS011;41970;48.774;9.280;2023-06-10T02:17:23;6.40;;;5.80;;
56102;SDS011;41970;48.774;9.280;2023-06-10T02:19:49;5.20;;;4.70;;
56102;SDS011;41970;48.774;9.280;2023-06-10T02:22:21;5.80;;;5.30;;
56102;SDS011;41970;48.774;9.280;2023-06-10T02:24:48;7.10;;;6.50;;
56102;SDS011;41970;48.774;9.280;2023-06-10T02:27:15;5.60;;;5.10;;
56102;SDS011;41970;48.774;9.280;2023-06-10T02:29:41;6.00;;;5.50;;
56102;SDS011;41970;48.774;9.280;2023-06-10T02:32:08;6.63;;;5.27;;
56102;SDS011;41970;48.774;9.280;2023-06-10T02:34:34;5.77;;;5.27;;
56102;SDS011;41970;48.774;9.280;2023-06-10T02:37:01;5.53;;;5.03;;
56102;SDS011;41970;48.774;9.280;2023-06-10T02:39:27;8.23;;;5.73;;
56102;SDS011;41970;48.774;9.280;2023-06-10T02:41:53;6.23;;;5.73;;
56102;SDS011;41970;48.774;9.280;2023-06-10T02:44:19;6.00;;;5.47;;
56102;SDS011;41970;48.774;9.280;2023-06-10T02:46:45;5.83;;;5.33;;
56102;SDS011;41970;48.774;9.280;2023-06-10T02:49:11;5.63;;;5.13;;
56102;SDS011;41970;48.774;9.280;2023-06-10T02:51:37;5.47;;;5.00;;
56102;SDS011;41970;48.774;9.280;2023-06-10T02:54:03;6.60;;;6.00;;
56102;SDS011;41970;48.774;9.280;2023-06-10T02:56:29;5.27;;;4.83;;
56102;SDS011;41970;48.774;9.280;2023-06-10T02:58:56;5.43;;;5.03;;
56102;SDS011;41970;48.774;9.280;2023-06-10T03:01:23;6.40;;;5.80;;
56102;SDS011;41970;48.774;9.280;2023-06-10T03:03:49;5.30;;;4.87;;
56102;SDS011;41970;48.774;9.280;2023-06-10T03:06:15;7.67;;;4.77;;
56102;SDS011;41970;48.774;9.280;2023-06-10T03:08:41;5.80;;;5.20;;
56102;SDS011;41970;48.774;9.280;2023-06-10T03:11:07;5.40;;;4.90;;
56102;SDS011;41970;48.774;9.280;2023-06-10T03:13:32;5.37;;;4.87;;
56102;SDS011;41970;48.774;9.280;2023-06-10T03:15:58;5.37;;;4.97;;
56102;SDS011;41970;48.774;9.280;2023-06-10T03:18:27;4.90;;;4.50;;
56102;SDS011;41970;48.774;9.280;2023-06-10T03:20:56;5.43;;;4.93;;
56102;SDS011;41970;48.774;9.280;2023-06-10T03:23:23;5.97;;;5.17;;
56102;SDS011;41970;48.774;9.280;2023-06-10T03:25:48;5.57;;;5.10;;
56102;SDS011;41970;48.774;9.280;2023-06-10T03:28:14;5.60;;;5.10;;
56102;SDS011;41970;48.774;9.280;2023-06-10T03:30:40;5.00;;;4.60;;
56102;SDS011;41970;48.774;9.280;2023-06-10T03:33:06;6.00;;;5.40;;
56102;SDS011;41970;48.774;9.280;2023-06-10T03:35:32;6.60;;;6.00;;
56102;SDS011;41970;48.774;9.280;2023-06-10T03:37:58;5.40;;;4.90;;
56102;SDS011;41970;48.774;9.280;2023-06-10T03:40:24;6.87;;;5.27;;
56102;SDS011;41970;48.774;9.280;2023-06-10T03:42:49;5.30;;;4.90;;
56102;SDS011;41970;48.774;9.280;2023-06-10T03:45:15;5.40;;;5.00;;
56102;SDS011;41970;48.774;9.280;2023-06-10T03:47:41;6.13;;;5.53;;
56102;SDS011;41970;48.774;9.280;2023-06-10T03:50:08;5.90;;;5.30;;
56102;SDS011;41970;48.774;9.280;2023-06-10T03:52:35;5.87;;;5.37;;
56102;SDS011;41970;48.774;9.280;2023-06-10T03:55:02;5.47;;;4.93;;
56102;SDS011;41970;48.774;9.280;2023-06-10T03:57:28;5.33;;;4.83;;
56102;SDS011;41970;48.774;9.280;2023-06-10T03:59:54;6.10;;;5.60;;
56102;SDS011;41970;48.774;9.280;2023-06-10T04:02:21;5.43;;;4.93;;
56102;SDS011;41970;48.774;9.280;2023-06-10T04:04:47;6.03;;;5.53;;
56102;SDS011;41970;48.774;9.280;2023-06-10T04:07:13;5.57;;;5.07;;
56102;SDS011;41970;48.774;9.280;2023-06-10T04:09:39;4.63;;;4.23;;
56102;SDS011;41970;48.774;9.280;2023-06-10T04:12:05;5.27;;;4.83;;
56102;SDS011;41970;48.774;9.280;2023-06-10T04:14:34;5.47;;;4.97;;
56102;SDS011;41970;48.774;9.280;2023-06-10T04:17:02;5.47;;;4.97;;
56102;SDS011;41970;48.774;9.280;2023-06-10T04:19:32;6.57;;;5.03;;
56102;SDS011;41970;48.774;9.280;2023-06-10T04:21:58;5.50;;;4.73;;
56102;SDS011;41970;48.774;9.280;2023-06-10T04:24:25;5.37;;;4.97;;
56102;SDS011;41970;48.774;9.280;2023-06-10T04:26:51;5.90;;;5.40;;
56102;SDS011;41970;48.774;9.280;2023-06-10T04:29:17;5.50;;;5.00;;
56102;SDS011;41970;48.774;9.280;2023-06-10T04:31:42;6.37;;;5.87;;
56102;SDS011;41970;48.774;9.280;2023-06-10T04:34:08;5.57;;;5.07;;
56102;SDS011;41970;48.774;9.280;2023-06-10T04:36:34;5.73;;;5.23;;
56102;SDS011;41970;48.774;9.280;2023-06-10T04:39:00;5.70;;;5.20;;
56102;SDS011;41970;48.774;9.280;2023-06-10T04:41:26;5.40;;;5.00;;
56102;SDS011;41970;48.774;9.280;2023-06-10T04:43:52;6.60;;;6.00;;
56102;SDS011;41970;48.774;9.280;2023-06-10T04:46:18;5.83;;;5.33;;
56102;SDS011;41970;48.774;9.280;2023-06-10T04:48:44;5.43;;;4.93;;
56102;SDS011;41970;48.774;9.280;2023-06-10T04:51:12;6.50;;;5.80;;
56102;SDS011;41970;48.774;9.280;2023-06-10T04:53:38;5.53;;;5.13;;
56102;SDS011;41970;48.774;9.280;2023-06-10T04:56:04;6.10;;;5.50;;
56102;SDS011;41970;48.774;9.280;2023-06-10T04:58:30;6.50;;;5.53;;
56102;SDS011;41970;48.774;9.280;2023-06-10T05:00:55;5.60;;;5.10;;
56102;SDS011;41970;48.774;9.280;2023-06-10T05:03:21;6.13;;;5.57;;
56102;SDS011;41970;48.774;9.280;2023-06-10T05:05:47;5.80;;;5.30;;
56102;SDS011;41970;48.774;9.280;2023-06-10T05:08:12;10.10;;;6.17;;
56102;SDS011;41970;48.774;9.280;2023-06-10T05:10:38;6.40;;;5.83;;
56102;SDS011;41970;48.774;9.280;2023-06-10T05:13:04;6.00;;;5.50;;
56102;SDS011;41970;48.774;9.280;2023-06-10T05:15:30;5.80;;;5.30;;
56102;SDS011;41970;48.774;9.280;2023-06-10T05:17:59;6.00;;;5.50;;
56102;SDS011;41970;48.774;9.280;2023-06-10T05:20:25;6.83;;;6.23;;
56102;SDS011;41970;48.774;9.280;2023-06-10T05:22:51;7.60;;;6.60;;
56102;SDS011;41970;48.774;9.280;2023-06-10T05:25:17;7.90;;;6.93;;
56102;SDS011;41970;48.774;9.280;2023-06-10T05:27:43;7.37;;;6.77;;
56102;SDS011;41970;48.774;9.280;2023-06-10T05:30:10;7.47;;;6.87;;
56102;SDS011;41970;48.774;9.280;2023-06-10T05:32:36;7.40;;;6.80;;
56102;SDS011;41970;48.774;9.280;2023-06-10T05:35:02;6.70;;;6.10;;
56102;SDS011;41970;48.774;9.280;2023-06-10T05:37:29;6.97;;;6.40;;
56102;SDS011;41970;48.774;9.280;2023-06-10T05:39:55;6.67;;;6.07;;
56102;SDS011;41970;48.774;9.280;2023-06-10T05:42:21;7.13;;;6.53;;
56102;SDS011;41970;48.774;9.280;2023-06-10T05:44:47;6.70;;;6.10;;
56102;SDS011;41970;48.774;9.280;2023-06-10T05:47:12;6.80;;;6.20;;
56102;SDS011;41970;48.774;9.280;2023-06-10T05:49:38;6.60;;;6.00;;
56102;SDS011;41970;48.774;9.280;2023-06-10T05:52:04;5.70;;;5.20;;
56102;SDS011;41970;48.774;9.280;2023-06-10T05:54:30;6.13;;;5.63;;
56102;SDS011;41970;48.774;9.280;2023-06-10T05:56:56;6.20;;;5.70;;
56102;SDS011;41970;48.774;9.280;2023-06-10T05:59:22;7.40;;;5.80;;
56102;SDS011;41970;48.774;9.280;2023-06-10T06:01:48;6.20;;;5.60;;
56102;SDS011;41970;48.774;9.280;2023-06-10T06:04:15;6.10;;;5.60;;
56102;SDS011;41970;48.774;9.280;2023-06-10T06:06:41;6.20;;;5.70;;
56102;SDS011;41970;48.774;9.280;2023-06-10T06:09:07;7.03;;;6.43;;
56102;SDS011;41970;48.774;9.280;2023-06-10T06:11:34;7.00;;;6.40;;
56102;SDS011;41970;48.774;9.280;2023-06-10T06:14:00;7.30;;;6.60;;
56102;SDS011;41970;48.774;9.280;2023-06-10T06:16:26;7.40;;;6.10;;
56102;SDS011;41970;48.774;9.280;2023-06-10T06:18:52;7.17;;;6.63;;
56102;SDS011;41970;48.774;9.280;2023-06-10T06:21:18;7.40;;;6.70;;
56102;SDS011;41970;48.774;9.280;2023-06-10T06:23:43;6.77;;;6.07;;
56102;SDS011;41970;48.774;9.280;2023-06-10T06:26:09;5.87;;;5.37;;
56102;SDS011;41970;48.774;9.280;2023-06-10T06:28:35;6.90;;;6.30;;
56102;SDS011;41970;48.774;9.280;2023-06-10T06:31:00;6.10;;;5.60;;
56102;SDS011;41970;48.774;9.280;2023-06-10T06:33:26;6.67;;;5.47;;
56102;SDS011;41970;48.774;9.280;2023-06-10T06:35:52;6.73;;;6.13;;
56102;SDS011;41970;48.774;9.280;2023-06-10T06:38:18;7.00;;;6.40;;
56102;SDS011;41970;48.774;9.280;2023-06-10T06:40:47;6.13;;;5.53;;
56102;SDS011;41970;48.774;9.280;2023-06-10T06:43:12;6.10;;;5.57;;
56102;SDS011;41970;48.774;9.280;2023-06-10T06:45:38;7.00;;;6.23;;
56102;SDS011;41970;48.774;9.280;2023-06-10T06:48:04;6.60;;;6.00;;
56102;SDS011;41970;48.774;9.280;2023-06-10T06:50:32;6.80;;;5.90;;
56102;SDS011;41970;48.774;9.280;2023-06-10T06:52:58;7.50;;;6.80;;
56102;SDS011;41970;48.774;9.280;2023-06-10T06:55:23;6.00;;;5.40;;
56102;SDS011;41970;48.774;9.280;2023-06-10T06:57:49;6.40;;;5.90;;
56102;SDS011;41970;48.774;9.280;2023-06-10T07:00:15;5.80;;;5.40;;
56102;SDS011;41970;48.774;9.280;2023-06-10T07:02:41;6.90;;;6.20;;
56102;SDS011;41970;48.774;9.280;2023-06-10T07:05:07;6.20;;;5.73;;
56102;SDS011;41970;48.774;9.280;2023-06-10T07:07:33;5.97;;;5.50;;
56102;SDS011;41970;48.774;9.280;2023-06-10T07:09:58;6.50;;;6.03;;
56102;SDS011;41970;48.774;9.280;2023-06-10T07:12:24;5.80;;;5.30;;
56102;SDS011;41970;48.774;9.280;2023-06-10T07:14:50;6.90;;;6.40;;
56102;SDS011;41970;48.774;9.280;2023-06-10T07:17:17;6.87;;;6.20;;
56102;SDS011;41970;48.774;9.280;2023-06-10T07:19:43;7.37;;;6.77;;
56102;SDS011;41970;48.774;9.280;2023-06-10T07:22:10;6.20;;;5.70;;
56102;SDS011;41970;48.774;9.280;2023-06-10T07:24:35;8.07;;;6.70;;
56102;SDS011;41970;48.774;9.280;2023-06-10T07:27:01;6.20;;;5.60;;
56102;SDS011;41970;48.774;9.280;2023-06-10T07:29:27;6.40;;;5.90;;
56102;SDS011;41970;48.774;9.280;2023-06-10T07:31:53;6.63;;;6.03;;
56102;SDS011;41970;48.774;9.280;2023-06-10T07:34:19;7.60;;;6.90;;
56102;SDS011;41970;48.774;9.280;2023-06-10T07:36:45;7.77;;;6.73;;
56102;SDS011;41970;48.774;9.280;2023-06-10T07:39:10;7.23;;;6.70;;
56102;SDS011;41970;48.774;9.280;2023-06-10T07:41:36;6.70;;;6.20;;
56102;SDS011;41970;48.774;9.280;2023-06-10T07:44:02;5.77;;;5.27;;
56102;SDS011;41970;48.774;9.280;2023-06-10T07:46:28;6.73;;;5.80;;
56102;SDS011;41970;48.774;9.280;2023-06-10T07:48:54;6.40;;;5.90;;
56102;SDS011;41970;48.774;9.280;2023-06-10T07:51:20;5.93;;;5.43;;
56102;SDS011;41970;48.774;9.280;2023-06-10T07:53:46;5.63;;;5.23;;
56102;SDS011;41970;48.774;9.280;2023-06-10T07:56:12;6.60;;;5.97;;
56102;SDS011;41970;48.774;9.280;2023-06-10T07:58:38;6.73;;;5.40;;
56102;SDS011;41970;48.774;9.280;2023-06-10T08:01:04;5.60;;;5.20;;
56102;SDS011;41970;48.774;9.280;2023-06-10T08:03:30;5.90;;;5.40;;
56102;SDS011;41970;48.774;9.280;2023-06-10T08:05:55;6.07;;;5.57;;
56102;SDS011;41970;48.774;9.280;2023-06-10T08:08:21;5.13;;;4.73;;
56102;SDS011;41970;48.774;9.280;2023-06-10T08:10:47;5.83;;;5.43;;
56102;SDS011;41970;48.774;9.280;2023-06-10T08:13:14;6.60;;;6.00;;
56102;SDS011;41970;48.774;9.280;2023-06-10T08:15:40;6.50;;;5.50;;
56102;SDS011;41970;48.774;9.280;2023-06-10T08:18:06;5.33;;;4.93;;
56102;SDS011;41970;48.774;9.280;2023-06-10T08:20:31;5.23;;;4.83;;
56102;SDS011;41970;48.774;9.280;2023-06-10T08:22:57;5.17;;;4.77;;
56102;SDS011;41970;48.774;9.280;2023-06-10T08:25:23;5.40;;;4.90;;
56102;SDS011;41970;48.774;9.280;2023-06-10T08:27:49;5.13;;;4.63;;
56102;SDS011;41970;48.774;9.280;2023-06-10T08:30:16;6.00;;;5.50;;
56102;SDS011;41970;48.774;9.280;2023-06-10T08:32:43;4.30;;;4.00;;
56102;SDS011;41970;48.774;9.280;2023-06-10T08:35:09;5.10;;;4.70;;
56102;SDS011;41970;48.774;9.280;2023-06-10T08:37:35;5.00;;;4.67;;
56102;SDS011;41970;48.774;9.280;2023-06-10T08:40:00;5.40;;;5.00;;
56102;SDS011;41970;48.774;9.280;2023-06-10T08:45:05;5.00;;;4.60;;
56102;SDS011;41970;48.774;9.280;2023-06-10T08:47:37;4.70;;;4.40;;
56102;SDS011;41970;48.774;9.280;2023-06-10T08:50:06;6.10;;;5.70;;
56102;SDS011;41970;48.774;9.280;2023-06-10T08:52:36;5.47;;;5.00;;
56102;SDS011;41970;48.774;9.280;2023-06-10T08:55:04;5.00;;;4.70;;
56102;SDS011;41970;48.774;9.280;2023-06-10T08:57:36;5.20;;;4.70;;
56102;SDS011;41970;48.774;9.280;2023-06-10T09:00:02;5.03;;;4.63;;
56102;SDS011;41970;48.774;9.280;2023-06-10T09:02:29;5.10;;;4.80;;
56102;SDS011;41970;48.774;9.280;2023-06-10T09:05:00;5.53;;;4.90;;
56102;SDS011;41970;48.774;9.280;2023-06-10T09:07:27;4.60;;;4.30;;
56102;SDS011;41970;48.774;9.280;2023-06-10T09:09:56;4.97;;;4.57;;
56102;SDS011;41970;48.774;9.280;2023-06-10T09:12:24;5.30;;;4.90;;
56102;SDS011;41970;48.774;9.280;2023-06-10T09:14:50;4.87;;;4.53;;
56102;SDS011;41970;48.774;9.280;2023-06-10T09:17:16;5.43;;;5.03;;
56102;SDS011;41970;48.774;9.280;2023-06-10T09:19:42;5.03;;;4.73;;
56102;SDS011;41970;48.774;9.280;2023-06-10T09:22:10;5.30;;;4.90;;
56102;SDS011;41970;48.774;9.280;2023-06-10T09:24:36;5.87;;;5.40;;
56102;SDS011;41970;48.774;9.280;2023-06-10T09:29:46;5.20;;;4.70;;
56102;SDS011;41970;48.774;9.280;2023-06-10T09:32:19;6.20;;;5.10;;
56102;SDS011;41970;48.774;9.280;2023-06-10T09:34:46;5.53;;;5.13;;
56102;SDS011;41970;48.774;9.280;2023-06-10T09:37:12;5.67;;;5.27;;
56102;SDS011;41970;48.774;9.280;2023-06-10T09:39:44;5.97;;;5.47;;
56102;SDS011;41970;48.774;9.280;2023-06-10T09:42:25;5.30;;;4.90;;
56102;SDS011;41970;48.774;9.280;2023-06-10T09:44:51;6.00;;;5.60;;
56102;SDS011;41970;48.774;9.280;2023-06-10T09:47:20;5.67;;;5.17;;
56102;SDS011;41970;48.774;9.280;2023-06-10T09:49:48;5.23;;;4.83;;
56102;SDS011;41970;48.774;9.280;2023-06-10T09:52:26;5.43;;;5.00;;
56102;SDS011;41970;48.774;9.280;2023-06-10T09:55:00;5.43;;;5.03;;
56102;SDS011;41970;48.774;9.280;2023-06-10T09:57:30;5.83;;;5.33;;
56102;SDS011;41970;48.774;9.280;2023-06-10T09:59:59;5.77;;;5.27;;
56102;SDS011;41970;48.774;9.280;2023-06-10T10:02:30;6.40;;;5.90;;
56102;SDS011;41970;48.774;9.280;2023-06-10T10:05:01;7.03;;;5.50;;
56102;SDS011;41970;48.774;9.280;2023-06-10T10:07:29;5.73;;;5.33;;
56102;SDS011;41970;48.774;9.280;2023-06-10T10:09:55;6.03;;;5.63;;
56102;SDS011;41970;48.774;9.280;2023-06-10T10:12:21;6.00;;;5.60;;
56102;SDS011;41970;48.774;9.280;2023-06-10T10:14:48;5.43;;;5.03;;
56102;SDS011;41970;48.774;9.280;2023-06-10T10:17:15;6.10;;;5.60;;
56102;SDS011;41970;48.774;9.280;2023-06-10T10:22:15;5.40;;;5.00;;
56102;SDS011;41970;48.774;9.280;2023-06-10T10:24:49;5.17;;;4.77;;
56102;SDS011;41970;48.774;9.280;2023-06-10T10:27:27;6.70;;;5.33;;
56102;SDS011;41970;48.774;9.280;2023-06-10T10:29:55;6.23;;;5.73;;
56102;SDS011;41970;48.774;9.280;2023-06-10T10:33:06;5.47;;;5.07;;
56102;SDS011;41970;48.774;9.280;2023-06-10T10:35:41;5.90;;;5.40;;
56102;SDS011;41970;48.774;9.280;2023-06-10T10:38:08;5.20;;;4.80;;
56102;SDS011;41970;48.774;9.280;2023-06-10T10:40:35;5.13;;;4.73;;
56102;SDS011;41970;48.774;9.280;2023-06-10T10:43:01;6.13;;;5.10;;
56102;SDS011;41970;48.774;9.280;2023-06-10T10:45:28;5.60;;;5.10;;
56102;SDS011;41970;48.774;9.280;2023-06-10T10:47:54;5.70;;;5.30;;
56102;SDS011;41970;48.774;9.280;2023-06-10T10:50:21;5.57;;;5.10;;
56102;SDS011;41970;48.774;9.280;2023-06-10T10:53:03;5.60;;;5.20;;
56102;SDS011;41970;48.774;9.280;2023-06-10T10:55:30;5.57;;;5.17;;
56102;SDS011;41970;48.774;9.280;2023-06-10T11:00:30;5.10;;;4.70;;
56102;SDS011;41970;48.774;9.280;2023-06-10T11:03:04;5.90;;;5.50;;
56102;SDS011;41970;48.774;9.280;2023-06-10T11:08:09;4.67;;;4.37;;
56102;SDS011;41970;48.774;9.280;2023-06-10T11:10:37;5.17;;;4.77;;
56102;SDS011;41970;48.774;9.280;2023-06-10T11:13:12;7.00;;;6.50;;
56102;SDS011;41970;48.774;9.280;2023-06-10T11:15:43;5.70;;;5.20;;
56102;SDS011;41970;48.774;9.280;2023-06-10T11:18:24;7.30;;;5.30;;
56102;SDS011;41970;48.774;9.280;2023-06-10T11:21:01;5.03;;;4.50;;
56102;SDS011;41970;48.774;9.280;2023-06-10T11:23:30;6.40;;;5.80;;
56102;SDS011;41970;48.774;9.280;2023-06-10T11:31:28;6.33;;;4.83;;
56102;SDS011;41970;48.774;9.280;2023-06-10T11:33:56;7.20;;;5.20;;
56102;SDS011;41970;48.774;9.280;2023-06-10T11:36:23;5.50;;;5.00;;
56102;SDS011;41970;48.774;9.280;2023-06-10T11:38:56;5.90;;;4.90;;
56102;SDS011;41970;48.774;9.280;2023-06-10T11:41:24;5.10;;;4.70;;
56102;SDS011;41970;48.774;9.280;2023-06-10T11:43:51;5.77;;;5.30;;
56102;SDS011;41970;48.774;9.280;2023-06-10T11:46:18;5.50;;;5.00;;
56102;SDS011;41970;48.774;9.280;2023-06-10T11:48:54;4.80;;;4.50;;
56102;SDS011;41970;48.774;9.280;2023-06-10T11:51:20;5.70;;;5.30;;
56102;SDS011;41970;48.774;9.280;2023-06-10T11:53:49;5.17;;;4.80;;
56102;SDS011;41970;48.774;9.280;2023-06-10T11:56:22;4.93;;;4.53;;
56102;SDS011;41970;48.774;9.280;2023-06-10T11:58:52;5.20;;;4.80;;
56102;SDS011;41970;48.774;9.280;2023-06-10T12:01:20;4.40;;;4.10;;
56102;SDS011;41970;48.774;9.280;2023-06-10T12:03:47;5.17;;;4.77;;
56102;SDS011;41970;48.774;9.280;2023-06-10T12:06:21;4.93;;;4.53;;
56102;SDS011;41970;48.774;9.280;2023-06-10T12:08:46;5.13;;;4.73;;
56102;SDS011;41970;48.774;9.280;2023-06-10T12:11:12;5.30;;;4.90;;
56102;SDS011;41970;48.774;9.280;2023-06-10T12:13:38;4.90;;;4.50;;
56102;SDS011;41970;48.774;9.280;2023-06-10T12:16:14;6.20;;;5.37;;
56102;SDS011;41970;48.774;9.280;2023-06-10T12:18:42;5.30;;;4.90;;
56102;SDS011;41970;48.774;9.280;2023-06-10T12:21:18;5.33;;;4.83;;
56102;SDS011;41970;48.774;9.280;2023-06-10T12:24:07;5.43;;;4.93;;
56102;SDS011;41970;48.774;9.280;2023-06-10T12:26:39;5.50;;;5.10;;
56102;SDS011;41970;48.774;9.280;2023-06-10T12:29:19;5.60;;;5.20;;
56102;SDS011;41970;48.774;9.280;2023-06-10T12:32:02;4.90;;;4.50;;
56102;SDS011;41970;48.774;9.280;2023-06-10T12:34:31;5.60;;;5.10;;
56102;SDS011;41970;48.774;9.280;2023-06-10T12:37:05;4.77;;;4.37;;
56102;SDS011;41970;48.774;9.280;2023-06-10T12:39:38;6.30;;;5.77;;
56102;SDS011;41970;48.774;9.280;2023-06-10T12:42:04;5.20;;;4.80;;
56102;SDS011;41970;48.774;9.280;2023-06-10T12:44:34;4.90;;;4.60;;
56102;SDS011;41970;48.774;9.280;2023-06-10T12:47:07;5.60;;;5.20;;
56102;SDS011;41970;48.774;9.280;2023-06-10T12:49:39;5.23;;;4.93;;
56102;SDS011;41970;48.774;9.280;2023-06-10T12:52:05;4.80;;;4.50;;
56102;SDS011;41970;48.774;9.280;2023-06-10T12:54:32;5.30;;;4.97;;
56102;SDS011;41970;48.774;9.280;2023-06-10T12:56:58;4.83;;;4.53;;
56102;SDS011;41970;48.774;9.280;2023-06-10T12:59:24;5.70;;;5.20;;
56102;SDS011;41970;48.774;9.280;2023-06-10T13:01:52;5.00;;;4.60;;
56102;SDS011;41970;48.774;9.280;2023-06-10T13:04:19;4.93;;;4.60;;
56102;SDS011;41970;48.774;9.280;2023-06-10T13:06:45;4.70;;;4.20;;
56102;SDS011;41970;48.774;9.280;2023-06-10T13:09:12;5.13;;;4.73;;
56102;SDS011;41970;48.774;9.280;2023-06-10T13:11:40;4.57;;;4.27;;
56102;SDS011;41970;48.774;9.280;2023-06-10T13:14:06;4.33;;;4.03;;
56102;SDS011;41970;48.774;9.280;2023-06-10T13:16:33;5.77;;;5.37;;
56102;SDS011;41970;48.774;9.280;2023-06-10T13:18:59;4.63;;;4.33;;
56102;SDS011;41970;48.774;9.280;2023-06-10T13:21:27;4.80;;;4.50;;
56102;SDS011;41970;48.774;9.280;2023-06-10T13:23:53;4.83;;;4.43;;
56102;SDS011;41970;48.774;9.280;2023-06-10T13:26:19;4.40;;;4.10;;
56102;SDS011;41970;48.774;9.280;2023-06-10T13:28:45;4.67;;;4.37;;
56102;SDS011;41970;48.774;9.280;2023-06-10T13:31:10;4.67;;;4.37;;
56102;SDS011;41970;48.774;9.280;2023-06-10T13:33:37;4.40;;;4.10;;
56102;SDS011;41970;48.774;9.280;2023-06-10T13:36:03;4.60;;;4.30;;
56102;SDS011;41970;48.774;9.280;2023-06-10T13:38:29;5.00;;;4.60;;
56102;SDS011;41970;48.774;9.280;2023-06-10T13:40:55;4.17;;;3.87;;
56102;SDS011;41970;48.774;9.280;2023-06-10T13:43:21;5.20;;;4.80;;
56102;SDS011;41970;48.774;9.280;2023-06-10T13:45:47;4.43;;;4.13;;
56102;SDS011;41970;48.774;9.280;2023-06-10T13:48:12;4.53;;;4.13;;
56102;SDS011;41970;48.774;9.280;2023-06-10T13:50:38;4.50;;;4.07;;
56102;SDS011;41970;48.774;9.280;2023-06-10T13:53:04;4.10;;;3.80;;
56102;SDS011;41970;48.774;9.280;2023-06-10T13:55:29;5.53;;;5.07;;
56102;SDS011;41970;48.774;9.280;2023-06-10T13:57:55;4.20;;;3.90;;
56102;SDS011;41970;48.774;9.280;2023-06-10T14:00:21;5.20;;;4.80;;
56102;SDS011;41970;48.774;9.280;2023-06-10T14:02:47;4.77;;;4.47;;
56102;SDS011;41970;48.774;9.280;2023-06-10T14:05:12;4.63;;;4.23;;
56102;SDS011;41970;48.774;9.280;2023-06-10T14:07:38;4.23;;;3.93;;
56102;SDS011;41970;48.774;9.280;2023-06-10T14:10:05;4.87;;;4.30;;
56102;SDS011;41970;48.774;9.280;2023-06-10T14:12:33;4.93;;;4.60;;
56102;SDS011;41970;48.774;9.280;2023-06-10T14:14:58;5.10;;;4.77;;
56102;SDS011;41970;48.774;9.280;2023-06-10T14:17:24;4.50;;;4.20;;
56102;SDS011;41970;48.774;9.280;2023-06-10T14:19:50;4.90;;;4.60;;
56102;SDS011;41970;48.774;9.280;2023-06-10T14:22:16;5.07;;;4.67;;
56102;SDS011;41970;48.774;9.280;2023-06-10T14:24:41;5.30;;;4.87;;
56102;SDS011;41970;48.774;9.280;2023-06-10T14:27:07;5.17;;;4.83;;
56102;SDS011;41970;48.774;9.280;2023-06-10T14:29:33;5.10;;;4.73;;
56102;SDS011;41970;48.774;9.280;2023-06-10T14:32:00;5.33;;;4.80;;
56102;SDS011;41970;48.774;9.280;2023-06-10T14:34:25;5.93;;;5.33;;
56102;SDS011;41970;48.774;9.280;2023-06-10T14:36:54;5.03;;;4.63;;
56102;SDS011;41970;48.774;9.280;2023-06-10T14:39:20;5.10;;;4.80;;
56102;SDS011;41970;48.774;9.280;2023-06-10T14:41:46;5.83;;;5.43;;
56102;SDS011;41970;48.774;9.280;2023-06-10T14:44:12;5.10;;;4.70;;
56102;SDS011;41970;48.774;9.280;2023-06-10T14:46:38;5.20;;;4.80;;
56102;SDS011;41970;48.774;9.280;2023-06-10T14:49:04;4.80;;;4.50;;
56102;SDS011;41970;48.774;9.280;2023-06-10T14:51:30;5.53;;;5.13;;
56102;SDS011;41970;48.774;9.280;2023-06-10T14:53:55;5.87;;;5.47;;
56102;SDS011;41970;48.774;9.280;2023-06-10T14:56:21;5.97;;;5.37;;
56102;SDS011;41970;48.774;9.280;2023-06-10T14:58:47;5.90;;;5.50;;
56102;SDS011;41970;48.774;9.280;2023-06-10T15:01:13;5.50;;;5.00;;
56102;SDS011;41970;48.774;9.280;2023-06-10T15:03:39;5.20;;;4.90;;
56102;SDS011;41970;48.774;9.280;2023-06-10T15:06:04;5.10;;;4.73;;
56102;SDS011;41970;48.774;9.280;2023-06-10T15:08:30;5.77;;;5.27;;
56102;SDS011;41970;48.774;9.280;2023-06-10T15:10:56;5.40;;;5.00;;
56102;SDS011;41970;48.774;9.280;2023-06-10T15:13:22;7.07;;;6.50;;